Time;durP1;ratioP1;P1;durP2;ratioP2;P2;SDS_P1;SDS_P2;PMS_P1;PMS_P2;Temp;Humidity;BMP_temperature;BMP_pressure;BME280_temperature;BME280_humidity;BME280_pressure;Samples;Min_cycle;Max_cycle;Signal;HPM_P1;HPM_P2
2021/11/22 00:00:59;;;;;;;7.72;4.35;;;6.20;99.90;;;;;;5023654;28;20264;-84
2021/11/22 00:03:26;;;;;;;9.93;4.65;;;6.10;99.90;;;;;;5024082;28;20556;-83
2021/11/22 00:05:54;;;;;;;6.35;4.53;;;6.10;99.90;;;;;;5027163;28;20208;-84
2021/11/22 00:08:22;;;;;;;5.70;4.32;;;6.10;99.90;;;;;;5026017;28;20234;-84
2021/11/22 00:10:50;;;;;;;5.57;4.38;;;6.10;99.90;;;;;;5020446;28;20240;-85
2021/11/22 00:13:16;;;;;;;11.25;4.38;;;6.10;99.90;;;;;;5031273;28;20555;-84
2021/11/22 00:15:45;;;;;;;6.75;4.45;;;6.10;99.90;;;;;;5025153;28;20308;-84
2021/11/22 00:18:12;;;;;;;8.55;4.32;;;6.10;99.90;;;;;;5022193;28;20225;-84
2021/11/22 00:20:40;;;;;;;11.50;4.50;;;6.10;99.90;;;;;;5031684;28;20711;-85
2021/11/22 00:23:07;;;;;;;4.00;3.60;;;6.10;99.90;;;;;;5029959;28;20195;-83
2021/11/22 00:25:34;;;;;;;9.50;4.50;;;6.10;99.90;;;;;;5029888;28;20637;-84
2021/11/22 00:28:01;;;;;;;12.43;4.38;;;6.10;99.90;;;;;;5020819;28;20289;-83
2021/11/22 00:30:29;;;;;;;8.07;3.83;;;6.10;99.90;;;;;;5030696;28;20288;-83
2021/11/22 00:32:59;;;;;;;6.70;3.95;;;6.10;99.90;;;;;;5030955;28;20210;-84
2021/11/22 00:35:32;;;;;;;7.97;4.35;;;6.10;99.90;;;;;;5026196;28;20233;-84
2021/11/22 00:37:59;;;;;;;4.13;3.50;;;6.10;99.90;;;;;;5023914;28;20264;-84
2021/11/22 00:40:26;;;;;;;4.25;3.20;;;6.10;99.90;;;;;;5023163;28;20727;-85
2021/11/22 00:42:53;;;;;;;8.85;4.25;;;6.10;99.90;;;;;;5025595;28;20263;-84
2021/11/22 00:45:20;;;;;;;8.40;3.97;;;6.10;99.90;;;;;;5025892;28;20260;-84
2021/11/22 00:47:47;;;;;;;10.23;4.55;;;6.10;99.90;;;;;;5019640;28;20199;-85
2021/11/22 00:50:16;;;;;;;4.68;3.95;;;6.10;99.90;;;;;;5030573;28;20320;-85
2021/11/22 00:52:44;;;;;;;7.80;4.18;;;6.20;99.90;;;;;;5028607;28;20232;-83
2021/11/22 00:55:11;;;;;;;8.90;3.70;;;6.20;99.90;;;;;;5019746;28;20422;-82
2021/11/22 00:57:39;;;;;;;8.52;3.40;;;6.20;99.90;;;;;;5022547;28;20209;-83
2021/11/22 01:00:09;;;;;;;8.48;4.30;;;6.20;99.90;;;;;;5019091;28;20301;-84
2021/11/22 01:02:36;;;;;;;9.65;3.78;;;6.20;99.90;;;;;;5023032;28;20311;-83
2021/11/22 01:05:03;;;;;;;6.07;3.80;;;6.30;99.90;;;;;;5020220;28;20210;-85
2021/11/22 01:07:33;;;;;;;8.25;4.18;;;6.30;99.90;;;;;;5029587;28;20556;-83
2021/11/22 01:10:00;;;;;;;4.82;3.80;;;6.30;99.90;;;;;;5030994;28;20212;-83
2021/11/22 01:12:28;;;;;;;13.73;3.70;;;6.30;99.90;;;;;;5026084;28;20305;-83
2021/11/22 01:14:56;;;;;;;9.85;3.47;;;6.40;99.90;;;;;;5018235;28;20236;-84
2021/11/22 01:17:23;;;;;;;9.88;4.18;;;6.40;99.90;;;;;;5024295;28;20561;-83
2021/11/22 01:19:52;;;;;;;9.85;3.90;;;6.40;99.90;;;;;;5031320;28;20202;-83
2021/11/22 01:22:20;;;;;;;9.27;3.83;;;6.40;99.90;;;;;;5029862;28;20584;-84
2021/11/22 01:24:48;;;;;;;5.43;3.58;;;6.40;99.90;;;;;;5025751;28;20612;-83
2021/11/22 01:27:15;;;;;;;7.63;3.70;;;6.40;99.90;;;;;;5022687;28;20216;-84
2021/11/22 01:29:43;;;;;;;4.32;3.53;;;6.50;99.90;;;;;;5020089;28;20205;-84
2021/11/22 01:32:10;;;;;;;9.68;3.22;;;6.50;99.90;;;;;;5016401;28;20202;-83
2021/11/22 01:34:37;;;;;;;5.07;3.45;;;6.50;99.90;;;;;;5027908;28;20746;-84
2021/11/22 01:37:04;;;;;;;8.70;3.50;;;6.50;99.90;;;;;;5028758;28;20557;-83
2021/11/22 01:39:31;;;;;;;6.25;3.22;;;6.50;99.90;;;;;;5031512;28;20208;-84
2021/11/22 01:42:00;;;;;;;3.85;3.30;;;6.60;99.90;;;;;;5021880;28;20808;-83
2021/11/22 01:44:27;;;;;;;7.20;3.47;;;6.60;99.90;;;;;;5026377;28;20215;-83
2021/11/22 01:46:53;;;;;;;4.10;3.58;;;6.60;99.90;;;;;;5025912;28;20205;-83
2021/11/22 01:49:21;;;;;;;5.88;3.67;;;6.70;99.90;;;;;;5025262;28;20205;-85
2021/11/22 01:51:49;;;;;;;7.80;4.20;;;6.70;99.90;;;;;;5020870;28;20202;-83
2021/11/22 01:54:17;;;;;;;6.22;3.95;;;6.70;99.90;;;;;;5025170;28;20661;-84
2021/11/22 01:56:44;;;;;;;7.70;5.45;;;6.80;99.90;;;;;;5018867;28;20197;-85
2021/11/22 01:59:16;;;;;;;11.38;4.93;;;6.80;99.90;;;;;;5018203;28;20697;-84
2021/11/22 02:01:43;;;;;;;14.95;4.57;;;6.80;99.90;;;;;;5028469;28;20527;-84
2021/11/22 02:04:10;;;;;;;7.60;4.57;;;6.90;99.90;;;;;;5024714;28;20297;-82
2021/11/22 02:06:37;;;;;;;11.35;6.57;;;6.90;99.90;;;;;;5021298;28;20203;-84
2021/11/22 02:09:05;;;;;;;10.27;8.05;;;7.00;99.90;;;;;;5025708;28;20193;-83
2021/11/22 02:11:32;;;;;;;15.63;8.48;;;7.00;99.90;;;;;;5023282;28;20190;-83
2021/11/22 02:13:59;;;;;;;15.75;7.38;;;7.10;99.90;;;;;;5016830;28;20285;-83
2021/11/22 02:16:28;;;;;;;12.18;7.68;;;7.10;99.90;;;;;;5019341;28;20226;-83
2021/11/22 02:18:56;;;;;;;11.73;8.45;;;7.10;99.90;;;;;;5021943;28;20289;-85
2021/11/22 02:21:24;;;;;;;19.33;12.15;;;7.10;99.90;;;;;;5023694;28;20216;-85
2021/11/22 02:23:51;;;;;;;16.88;12.13;;;7.10;99.90;;;;;;5021673;28;20608;-82
2021/11/22 02:26:20;;;;;;;13.90;9.80;;;7.10;99.90;;;;;;5028415;28;20653;-83
2021/11/22 02:28:47;;;;;;;24.02;10.65;;;7.10;99.90;;;;;;5032033;28;20189;-83
2021/11/22 02:31:14;;;;;;;17.27;11.32;;;7.10;99.90;;;;;;5022436;28;20231;-84
2021/11/22 02:33:41;;;;;;;20.35;13.63;;;7.10;99.90;;;;;;5022955;28;20193;-83
2021/11/22 02:36:08;;;;;;;19.17;12.57;;;7.20;99.90;;;;;;5025247;28;20236;-83
2021/11/22 02:38:38;;;;;;;23.10;12.30;;;7.20;99.90;;;;;;5024027;28;20674;-83
2021/11/22 02:41:08;;;;;;;18.15;11.38;;;7.20;99.90;;;;;;5017254;28;20190;-83
2021/11/22 02:43:38;;;;;;;21.85;11.88;;;7.30;99.90;;;;;;5018607;28;20323;-85
2021/11/22 02:46:06;;;;;;;22.98;12.23;;;7.30;99.90;;;;;;5028281;28;20206;-83
2021/11/22 02:48:33;;;;;;;20.77;12.35;;;7.40;99.90;;;;;;5027094;28;20213;-84
2021/11/22 02:51:00;;;;;;;17.05;12.95;;;7.40;99.90;;;;;;5018718;28;20240;-83
2021/11/22 02:53:28;;;;;;;27.73;14.20;;;7.40;99.90;;;;;;5026350;28;20191;-85
2021/11/22 02:56:03;;;;;;;23.55;16.02;;;7.50;99.90;;;;;;5023080;28;20230;-83
2021/11/22 02:58:31;;;;;;;25.63;14.85;;;7.50;99.90;;;;;;5017421;28;20288;-85
2021/11/22 03:00:59;;;;;;;24.70;15.93;;;7.60;99.90;;;;;;5022554;28;20717;-84
2021/11/22 03:03:27;;;;;;;28.23;16.92;;;7.60;99.90;;;;;;5019559;28;20199;-85
2021/11/22 03:06:03;;;;;;;26.30;17.98;;;7.70;99.90;;;;;;5021311;28;20274;-83
2021/11/22 03:08:30;;;;;;;28.67;19.27;;;7.70;99.90;;;;;;5013473;28;20192;-84
2021/11/22 03:10:57;;;;;;;29.00;20.70;;;7.70;99.90;;;;;;5028541;28;20638;-83
2021/11/22 03:13:25;;;;;;;26.23;20.23;;;7.70;99.90;;;;;;5029327;28;20199;-85
2021/11/22 03:15:52;;;;;;;29.05;21.95;;;7.70;99.90;;;;;;5021040;28;20238;-84
2021/11/22 03:18:19;;;;;;;31.85;22.75;;;7.70;99.90;;;;;;5022026;28;20220;-84
2021/11/22 03:20:46;;;;;;;27.27;22.25;;;7.70;99.90;;;;;;5025101;28;20193;-83
2021/11/22 03:23:14;;;;;;;31.05;21.23;;;7.80;99.90;;;;;;5027716;28;20273;-84
2021/11/22 03:25:41;;;;;;;30.27;22.02;;;7.80;99.90;;;;;;5022316;28;20210;-85
2021/11/22 03:28:11;;;;;;;28.75;20.42;;;7.80;99.90;;;;;;5027825;28;20194;-84
2021/11/22 03:30:40;;;;;;;26.50;19.35;;;7.80;99.90;;;;;;5028073;28;20380;-84
2021/11/22 03:33:07;;;;;;;26.45;19.33;;;7.80;99.90;;;;;;5023033;28;20613;-84
2021/11/22 03:35:35;;;;;;;27.50;19.98;;;7.70;99.90;;;;;;5015594;28;20218;-84
2021/11/22 03:38:03;;;;;;;28.23;19.45;;;7.80;99.90;;;;;;5024837;28;20220;-84
2021/11/22 03:40:30;;;;;;;30.30;20.63;;;7.70;99.90;;;;;;5022717;28;20612;-84
2021/11/22 03:43:12;;;;;;;25.63;19.00;;;7.70;99.90;;;;;;5027183;28;20623;-84
2021/11/22 03:45:43;;;;;;;26.77;18.50;;;7.60;99.90;;;;;;5024297;28;20209;-84
2021/11/22 03:48:11;;;;;;;26.15;18.70;;;7.60;99.90;;;;;;5024991;28;20213;-83
2021/11/22 03:50:38;;;;;;;25.45;18.70;;;7.70;99.90;;;;;;5021100;28;20212;-84
2021/11/22 03:53:05;;;;;;;26.70;17.27;;;7.70;99.90;;;;;;5023344;28;20206;-84
2021/11/22 03:55:32;;;;;;;24.73;19.38;;;7.70;99.90;;;;;;5017161;28;20221;-85
2021/11/22 03:58:00;;;;;;;22.52;16.35;;;7.80;99.90;;;;;;5023964;28;20209;-84
2021/11/22 04:00:28;;;;;;;26.30;16.85;;;7.80;99.90;;;;;;5016002;28;20226;-83
2021/11/22 04:02:56;;;;;;;26.75;19.02;;;7.80;99.90;;;;;;5025863;28;20202;-83
2021/11/22 04:05:25;;;;;;;23.35;17.25;;;7.80;99.90;;;;;;5017096;28;20189;-84
2021/11/22 04:07:53;;;;;;;25.15;16.55;;;7.80;99.90;;;;;;5018162;28;20245;-84
2021/11/22 04:10:21;;;;;;;22.92;18.27;;;7.80;99.90;;;;;;5025323;28;20194;-84
2021/11/22 04:12:47;;;;;;;22.90;16.52;;;7.80;99.90;;;;;;5029623;28;20416;-84
2021/11/22 04:15:14;;;;;;;23.15;18.33;;;7.80;99.90;;;;;;5021848;28;20193;-84
2021/11/22 04:17:42;;;;;;;23.48;17.02;;;7.90;99.90;;;;;;5021451;28;20216;-83
2021/11/22 04:20:11;;;;;;;19.42;15.07;;;7.90;99.90;;;;;;5029090;28;20210;-84
2021/11/22 04:22:38;;;;;;;24.63;17.40;;;7.90;99.90;;;;;;5017991;28;20213;-84
2021/11/22 04:25:06;;;;;;;20.00;15.88;;;7.90;99.90;;;;;;5030448;28;20709;-83
2021/11/22 04:27:35;;;;;;;17.92;14.88;;;8.00;99.90;;;;;;5028139;28;20294;-83
2021/11/22 04:30:05;;;;;;;18.95;14.68;;;8.00;99.90;;;;;;5017831;28;20705;-85
2021/11/22 04:32:32;;;;;;;20.13;14.85;;;8.00;99.90;;;;;;5020259;28;20234;-83
2021/11/22 04:34:59;;;;;;;16.50;13.40;;;8.00;99.90;;;;;;5023049;28;20283;-83
2021/11/22 04:37:28;;;;;;;18.42;13.85;;;8.10;99.90;;;;;;5031762;28;20224;-84
2021/11/22 04:39:56;;;;;;;19.90;14.35;;;8.10;99.90;;;;;;5024938;28;20485;-83
2021/11/22 04:42:23;;;;;;;17.90;14.15;;;8.20;99.90;;;;;;5021891;28;20222;-84
2021/11/22 04:44:51;;;;;;;15.90;13.88;;;8.20;99.90;;;;;;5030208;28;20639;-84
2021/11/22 04:47:20;;;;;;;15.15;12.45;;;8.20;99.90;;;;;;5027733;28;20206;-84
2021/11/22 04:49:47;;;;;;;15.52;11.80;;;8.30;99.90;;;;;;5019182;28;20212;-84
2021/11/22 04:52:15;;;;;;;15.52;12.60;;;8.30;99.90;;;;;;5027543;28;20213;-84
2021/11/22 04:54:45;;;;;;;12.45;11.15;;;8.30;99.90;;;;;;5023318;28;20195;-84
2021/11/22 04:57:12;;;;;;;13.23;11.93;;;8.30;99.90;;;;;;5023613;28;20227;-84
2021/11/22 04:59:40;;;;;;;16.38;11.40;;;8.40;99.90;;;;;;5024332;28;20213;-83
2021/11/22 05:02:09;;;;;;;13.13;11.65;;;8.40;99.90;;;;;;5026829;28;20221;-85
2021/11/22 05:04:37;;;;;;;13.48;11.25;;;8.40;99.90;;;;;;5021309;28;20255;-84
2021/11/22 05:07:05;;;;;;;11.15;10.05;;;8.50;99.90;;;;;;5013067;28;20600;-84
2021/11/22 05:09:33;;;;;;;12.75;10.55;;;8.50;99.90;;;;;;5025253;28;20210;-85
2021/11/22 05:12:02;;;;;;;15.10;11.63;;;8.50;99.90;;;;;;5018661;28;20223;-83
2021/11/22 05:14:29;;;;;;;9.75;8.75;;;8.50;99.90;;;;;;5024783;28;20259;-85
2021/11/22 05:16:56;;;;;;;11.50;10.30;;;8.50;99.90;;;;;;5022442;28;20262;-83
2021/11/22 05:19:29;;;;;;;11.07;8.52;;;8.50;99.90;;;;;;5024937;28;20242;-85
2021/11/22 05:21:56;;;;;;;10.35;9.38;;;8.50;99.90;;;;;;5022373;28;20211;-84
2021/11/22 05:24:23;;;;;;;12.85;9.85;;;8.50;99.90;;;;;;5019540;28;20197;-84
2021/11/22 05:26:50;;;;;;;10.00;9.00;;;8.50;99.90;;;;;;5017613;28;20250;-85
2021/11/22 05:29:19;;;;;;;13.88;10.23;;;8.50;99.90;;;;;;5024463;28;20191;-83
2021/11/22 05:31:46;;;;;;;11.13;9.93;;;8.50;99.90;;;;;;5024147;28;20210;-84
2021/11/22 05:34:17;;;;;;;9.57;8.65;;;8.50;99.90;;;;;;5028640;28;20237;-84
2021/11/22 05:36:44;;;;;;;9.20;8.40;;;8.60;99.90;;;;;;5023525;28;20233;-83
2021/11/22 05:39:11;;;;;;;9.77;8.80;;;8.60;99.90;;;;;;5025395;28;20226;-83
2021/11/22 05:41:38;;;;;;;9.93;8.50;;;8.60;99.90;;;;;;5029873;28;20207;-84
2021/11/22 05:44:05;;;;;;;10.63;9.35;;;8.50;99.90;;;;;;5027108;28;20343;-84
2021/11/22 05:46:34;;;;;;;10.32;9.23;;;8.40;99.90;;;;;;5029223;28;20198;-83
2021/11/22 05:49:01;;;;;;;10.45;9.38;;;8.40;99.90;;;;;;5033751;28;20209;-85
2021/11/22 05:51:29;;;;;;;11.25;9.57;;;8.50;99.90;;;;;;5024673;28;20257;-83
2021/11/22 05:53:57;;;;;;;10.43;9.43;;;8.50;99.90;;;;;;5025052;28;20253;-83
2021/11/22 05:56:25;;;;;;;11.25;10.23;;;8.40;99.90;;;;;;5029598;28;20305;-84
2021/11/22 05:58:52;;;;;;;11.77;10.60;;;8.50;99.90;;;;;;5016051;28;20203;-84
2021/11/22 06:01:20;;;;;;;10.30;9.40;;;8.40;99.90;;;;;;5026687;28;20318;-84
2021/11/22 06:03:48;;;;;;;10.13;9.00;;;8.30;99.90;;;;;;5025605;28;20199;-83
2021/11/22 06:06:16;;;;;;;9.75;8.75;;;8.30;99.90;;;;;;5026304;28;20199;-84
2021/11/22 06:08:43;;;;;;;8.95;8.15;;;8.30;99.90;;;;;;5023945;28;20211;-84
2021/11/22 06:11:10;;;;;;;14.32;9.05;;;8.30;99.90;;;;;;5032141;28;20277;-84
2021/11/22 06:13:37;;;;;;;10.88;8.77;;;8.20;99.90;;;;;;5027273;28;20224;-84
2021/11/22 06:16:05;;;;;;;11.05;9.40;;;8.20;99.90;;;;;;5032912;28;20750;-84
2021/11/22 06:18:33;;;;;;;11.57;9.18;;;8.20;99.90;;;;;;5019943;28;20205;-83
2021/11/22 06:21:02;;;;;;;10.00;9.00;;;8.10;99.90;;;;;;5018836;28;20209;-84
2021/11/22 06:23:30;;;;;;;9.32;8.48;;;8.00;99.90;;;;;;5015605;28;20290;-83
2021/11/22 06:25:57;;;;;;;12.63;8.32;;;8.00;99.90;;;;;;5022364;28;20209;-83
2021/11/22 06:28:25;;;;;;;10.73;9.60;;;8.00;99.90;;;;;;5021835;28;20285;-84
2021/11/22 06:30:52;;;;;;;10.48;9.45;;;8.00;99.90;;;;;;5024278;28;20532;-84
2021/11/22 06:33:19;;;;;;;12.40;9.35;;;8.00;99.90;;;;;;5027463;28;20192;-83
2021/11/22 06:35:46;;;;;;;10.10;9.10;;;8.00;99.90;;;;;;5021759;28;20202;-84
2021/11/22 06:38:16;;;;;;;10.68;9.68;;;8.00;99.90;;;;;;5026690;28;20294;-84
2021/11/22 06:40:44;;;;;;;13.35;9.52;;;8.00;99.90;;;;;;5023807;28;20213;-84
2021/11/22 06:43:11;;;;;;;9.30;8.38;;;8.00;99.90;;;;;;5026798;28;20286;-84
2021/11/22 06:45:38;;;;;;;11.45;8.88;;;8.00;99.90;;;;;;5017126;28;20197;-83
2021/11/22 06:48:06;;;;;;;10.98;9.85;;;8.00;99.90;;;;;;5020021;28;20329;-84
2021/11/22 06:50:33;;;;;;;9.23;8.32;;;8.00;99.90;;;;;;5018724;28;20661;-84
2021/11/22 06:53:00;;;;;;;10.40;9.23;;;8.00;99.90;;;;;;5019353;28;20277;-83
2021/11/22 06:55:29;;;;;;;10.52;9.40;;;8.00;99.90;;;;;;5021499;28;20648;-83
2021/11/22 06:57:56;;;;;;;10.63;9.25;;;8.00;99.90;;;;;;5018928;28;20335;-84
2021/11/22 07:00:24;;;;;;;13.20;10.07;;;8.00;99.90;;;;;;5021368;28;20689;-84
2021/11/22 07:02:52;;;;;;;12.30;9.82;;;8.00;99.90;;;;;;5023321;28;20680;-83
2021/11/22 07:05:19;;;;;;;11.63;9.20;;;8.00;99.90;;;;;;5022782;28;20265;-83
2021/11/22 07:07:48;;;;;;;11.65;10.55;;;8.00;99.90;;;;;;5026966;28;20217;-83
2021/11/22 07:10:16;;;;;;;10.57;9.48;;;8.00;99.90;;;;;;5015460;28;20611;-84
2021/11/22 07:12:45;;;;;;;14.27;9.77;;;8.00;99.90;;;;;;5028349;28;20234;-83
2021/11/22 07:15:17;;;;;;;11.07;9.68;;;7.90;99.90;;;;;;5021505;28;20236;-84
2021/11/22 07:17:45;;;;;;;10.63;9.52;;;7.90;99.90;;;;;;5012766;28;20563;-84
2021/11/22 07:20:13;;;;;;;11.13;10.02;;;7.90;99.90;;;;;;5022244;28;20190;-85
2021/11/22 07:22:40;;;;;;;12.43;10.80;;;7.90;99.90;;;;;;5024307;28;20293;-84
2021/11/22 07:25:07;;;;;;;12.98;10.80;;;7.90;99.90;;;;;;5016884;28;20209;-83
2021/11/22 07:27:34;;;;;;;11.73;9.82;;;7.90;99.90;;;;;;5017454;28;20260;-84
2021/11/22 07:30:05;;;;;;;12.93;10.15;;;7.90;99.90;;;;;;5021622;28;20485;-84
2021/11/22 07:32:32;;;;;;;10.63;9.52;;;7.90;99.90;;;;;;5023912;28;20285;-83
2021/11/22 07:34:59;;;;;;;11.60;10.20;;;7.90;99.90;;;;;;5015706;28;20226;-83
2021/11/22 07:37:27;;;;;;;11.30;10.13;;;7.90;99.90;;;;;;5018090;28;20233;-83
2021/11/22 07:39:55;;;;;;;12.52;9.63;;;7.90;99.90;;;;;;5017744;28;20230;-83
2021/11/22 07:42:22;;;;;;;13.57;11.10;;;7.90;99.90;;;;;;5023137;28;20255;-83
2021/11/22 07:44:49;;;;;;;13.23;10.45;;;7.90;99.90;;;;;;5026007;28;20296;-84
2021/11/22 07:47:18;;;;;;;11.15;9.85;;;7.80;99.90;;;;;;5023886;28;20653;-83
2021/11/22 07:49:45;;;;;;;12.50;11.20;;;7.80;99.90;;;;;;5022185;28;20199;-84
2021/11/22 07:52:12;;;;;;;11.35;10.15;;;7.80;99.90;;;;;;5018172;28;20225;-83
2021/11/22 07:54:39;;;;;;;16.50;11.85;;;7.80;99.90;;;;;;5015502;28;20595;-83
2021/11/22 07:57:06;;;;;;;15.48;11.82;;;7.80;99.90;;;;;;5028091;28;20316;-82
2021/11/22 07:59:33;;;;;;;13.48;11.93;;;7.80;99.90;;;;;;5021492;28;20622;-79
2021/11/22 08:02:01;;;;;;;11.75;10.55;;;7.80;99.90;;;;;;5031225;28;20236;-83
2021/11/22 08:04:29;;;;;;;12.45;10.73;;;7.70;99.90;;;;;;5022734;28;20254;-84
2021/11/22 08:07:00;;;;;;;12.30;11.00;;;7.60;99.90;;;;;;5028041;28;20528;-83
2021/11/22 08:09:30;;;;;;;13.30;11.90;;;7.60;99.90;;;;;;5023225;28;20263;-84
2021/11/22 08:12:26;;;;;;;13.70;12.35;;;7.60;99.90;;;;;;5029551;28;20224;-83
2021/11/22 08:14:53;;;;;;;18.75;14.20;;;7.70;99.90;;;;;;5028629;28;20194;-85
2021/11/22 08:17:20;;;;;;;16.33;14.05;;;7.80;99.90;;;;;;5026313;28;20217;-83
2021/11/22 08:19:49;;;;;;;16.10;14.13;;;7.80;99.90;;;;;;5022037;28;20233;-83
2021/11/22 08:22:15;;;;;;;18.02;13.70;;;7.80;99.90;;;;;;5030382;28;20204;-84
2021/11/22 08:24:45;;;;;;;16.63;14.93;;;7.90;99.90;;;;;;5018625;28;20883;-83
2021/11/22 08:27:11;;;;;;;19.50;15.02;;;7.90;99.90;;;;;;5026422;28;20293;-83
2021/11/22 08:29:38;;;;;;;18.17;15.80;;;8.00;99.90;;;;;;5020730;28;20190;-83
2021/11/22 08:32:06;;;;;;;19.63;16.33;;;8.00;99.90;;;;;;5026279;28;20210;-84
2021/11/22 08:34:33;;;;;;;17.95;14.65;;;8.10;99.90;;;;;;5015162;28;20796;-84
2021/11/22 08:37:03;;;;;;;17.20;14.38;;;8.10;99.90;;;;;;5025302;28;20400;-83
2021/11/22 08:39:30;;;;;;;15.35;13.57;;;8.20;99.90;;;;;;5019906;28;20203;-85
2021/11/22 08:41:57;;;;;;;20.00;15.60;;;8.20;99.90;;;;;;5027197;28;20210;-84
2021/11/22 08:44:24;;;;;;;15.45;13.63;;;8.20;99.90;;;;;;5017642;28;20244;-84
2021/11/22 08:46:51;;;;;;;16.50;13.65;;;8.30;99.90;;;;;;5016740;28;20226;-84
2021/11/22 08:49:18;;;;;;;17.15;14.65;;;8.20;99.90;;;;;;5018241;28;20208;-84
2021/11/22 08:51:46;;;;;;;18.20;13.20;;;8.30;99.90;;;;;;5027233;28;20216;-83
2021/11/22 08:54:15;;;;;;;13.85;12.32;;;8.30;99.90;;;;;;5023505;28;20264;-84
2021/11/22 08:56:43;;;;;;;15.30;13.38;;;8.40;99.90;;;;;;5016677;28;20187;-87
2021/11/22 08:59:10;;;;;;;13.32;12.02;;;8.30;99.90;;;;;;5021909;28;20190;-85
2021/11/22 09:01:38;;;;;;;15.95;14.35;;;8.40;99.90;;;;;;5020246;28;20301;-85
2021/11/22 09:04:05;;;;;;;17.48;13.48;;;8.50;99.90;;;;;;5019696;28;20280;-85
2021/11/22 09:06:33;;;;;;;15.30;13.80;;;8.60;99.90;;;;;;5018680;28;20301;-84
2021/11/22 09:09:00;;;;;;;14.63;13.07;;;8.60;99.90;;;;;;5018880;28;20211;-84
2021/11/22 09:11:28;;;;;;;17.67;13.95;;;8.70;99.90;;;;;;5015671;28;20309;-85
2021/11/22 09:13:55;;;;;;;14.15;12.75;;;8.70;99.90;;;;;;5016874;28;20214;-84
2021/11/22 09:16:27;;;;;;;14.95;13.55;;;8.70;99.90;;;;;;5014972;28;20212;-83
2021/11/22 09:18:54;;;;;;;14.38;12.93;;;8.70;99.90;;;;;;5022593;28;20258;-86
2021/11/22 09:21:21;;;;;;;13.55;12.25;;;8.80;99.90;;;;;;5018360;28;20196;-84
2021/11/22 09:23:48;;;;;;;13.90;12.48;;;8.80;99.90;;;;;;5021712;28;20211;-84
2021/11/22 09:26:16;;;;;;;15.23;12.43;;;8.90;99.90;;;;;;5016114;28;20289;-84
2021/11/22 09:28:45;;;;;;;13.68;11.00;;;9.00;99.90;;;;;;5021549;28;20204;-85
2021/11/22 09:31:13;;;;;;;17.00;11.27;;;9.00;99.90;;;;;;5023027;28;20295;-84
2021/11/22 09:33:39;;;;;;;14.45;12.90;;;9.10;99.90;;;;;;5024366;28;20211;-84
2021/11/22 09:36:06;;;;;;;12.45;11.20;;;9.10;99.90;;;;;;5013508;28;21138;-83
2021/11/22 09:38:35;;;;;;;11.10;10.10;;;9.10;99.90;;;;;;5023817;28;20241;-83
2021/11/22 09:41:03;;;;;;;11.98;10.88;;;9.20;99.90;;;;;;5021321;28;20199;-84
2021/11/22 09:43:30;;;;;;;12.52;10.93;;;9.30;99.90;;;;;;5017830;28;20897;-85
2021/11/22 09:45:59;;;;;;;11.07;9.98;;;9.30;99.90;;;;;;5016421;28;20200;-83
2021/11/22 09:48:26;;;;;;;12.10;10.80;;;9.30;99.90;;;;;;5013334;28;20212;-84
2021/11/22 09:50:53;;;;;;;12.50;11.20;;;9.20;99.90;;;;;;5019052;28;20199;-83
2021/11/22 09:53:21;;;;;;;12.20;10.10;;;9.20;99.90;;;;;;5017321;28;20219;-84
2021/11/22 09:55:48;;;;;;;13.05;11.18;;;9.10;99.90;;;;;;5020283;28;20283;-84
2021/11/22 09:58:15;;;;;;;12.18;10.85;;;9.10;99.90;;;;;;5020395;28;20256;-84
2021/11/22 10:00:45;;;;;;;12.20;10.90;;;9.00;99.90;;;;;;5017994;28;20233;-85
2021/11/22 10:03:15;;;;;;;14.13;10.98;;;9.00;99.90;;;;;;5015757;28;20199;-85
2021/11/22 10:05:43;;;;;;;14.52;11.85;;;9.00;99.90;;;;;;5012203;28;20205;-84
2021/11/22 10:08:12;;;;;;;12.10;11.05;;;8.90;99.90;;;;;;5019863;28;20206;-85
2021/11/22 10:10:42;;;;;;;13.50;11.45;;;8.90;99.90;;;;;;5017045;28;20683;-84
2021/11/22 10:13:28;;;;;;;12.25;11.15;;;9.00;99.90;;;;;;5021085;28;20206;-84
2021/11/22 10:15:57;;;;;;;12.10;11.00;;;9.00;99.90;;;;;;5025118;28;20218;-85
2021/11/22 10:18:27;;;;;;;13.13;11.82;;;9.00;99.90;;;;;;5028048;28;20306;-85
2021/11/22 10:20:55;;;;;;;10.77;9.68;;;8.90;99.90;;;;;;5012073;28;20597;-86
2021/11/22 10:23:26;;;;;;;12.50;11.30;;;8.80;99.90;;;;;;5014245;28;20211;-85
2021/11/22 10:25:54;;;;;;;11.95;9.80;;;8.80;99.90;;;;;;5022568;28;20286;-85
2021/11/22 10:28:23;;;;;;;11.95;10.75;;;8.60;99.90;;;;;;5023037;28;20293;-87
2021/11/22 10:30:52;;;;;;;11.60;9.60;;;8.60;99.90;;;;;;5019706;28;20292;-84
2021/11/22 10:33:21;;;;;;;10.77;9.88;;;8.50;99.90;;;;;;5016092;28;20209;-86
2021/11/22 10:35:52;;;;;;;10.77;9.88;;;8.50;99.90;;;;;;5022339;28;20209;-83
2021/11/22 10:38:22;;;;;;;10.57;9.68;;;8.50;99.90;;;;;;5019327;28;20226;-81
2021/11/22 10:40:52;;;;;;;11.35;10.25;;;8.40;99.90;;;;;;5013966;28;21351;-84
2021/11/22 10:43:20;;;;;;;11.98;10.15;;;8.50;99.90;;;;;;5021123;28;20202;-84
2021/11/22 10:45:49;;;;;;;11.20;10.13;;;8.50;99.90;;;;;;5013301;28;20209;-84
2021/11/22 10:48:23;;;;;;;12.95;9.95;;;8.50;99.90;;;;;;5016672;28;20705;-84
2021/11/22 10:51:02;;;;;;;11.63;10.15;;;8.50;99.90;;;;;;5011523;28;20277;-84
2021/11/22 10:53:34;;;;;;;11.15;10.15;;;8.50;99.90;;;;;;5019387;28;20288;-85
2021/11/22 10:56:02;;;;;;;11.95;10.70;;;8.60;99.90;;;;;;5019123;28;20202;-86
2021/11/22 10:58:38;;;;;;;11.10;10.02;;;8.60;99.90;;;;;;5032044;28;20693;-83
2021/11/22 11:01:21;;;;;;;10.48;9.38;;;8.60;99.90;;;;;;5022526;28;20664;-85
2021/11/22 11:03:55;;;;;;;9.35;8.55;;;8.60;99.90;;;;;;5003544;28;20199;-84
2021/11/22 11:06:38;;;;;;;10.20;8.88;;;8.70;99.90;;;;;;5013179;28;20226;-83
2021/11/22 11:09:06;;;;;;;8.55;7.75;;;8.80;99.90;;;;;;5012725;28;20313;-84
2021/11/22 11:11:33;;;;;;;10.63;7.47;;;8.80;99.90;;;;;;5010990;28;20220;-87
2021/11/22 11:14:05;;;;;;;9.75;8.30;;;8.90;99.90;;;;;;5016476;28;20293;-85
2021/11/22 11:16:33;;;;;;;8.60;7.90;;;8.90;99.90;;;;;;5016130;28;20225;-84
2021/11/22 11:19:02;;;;;;;9.10;8.30;;;9.00;99.90;;;;;;5021625;28;20266;-84
2021/11/22 11:21:32;;;;;;;9.57;8.68;;;9.00;99.90;;;;;;5012174;28;20215;-84
2021/11/22 11:24:01;;;;;;;8.88;8.07;;;9.10;99.90;;;;;;5021600;28;20685;-84
2021/11/22 11:26:29;;;;;;;8.55;7.75;;;9.10;99.90;;;;;;5017762;28;20203;-86
2021/11/22 11:28:57;;;;;;;8.50;7.80;;;9.10;99.90;;;;;;5019030;28;20298;-87
2021/11/22 11:31:24;;;;;;;6.78;6.22;;;9.10;99.90;;;;;;5019102;28;20282;-86
2021/11/22 11:33:51;;;;;;;8.43;7.60;;;9.10;99.90;;;;;;5018630;28;20228;-86
2021/11/22 11:36:31;;;;;;;7.22;6.53;;;9.10;99.90;;;;;;5014702;28;20291;-87
2021/11/22 11:39:10;;;;;;;6.82;6.22;;;9.20;99.90;;;;;;5027747;28;20306;-86
2021/11/22 11:41:47;;;;;;;8.95;6.68;;;9.20;99.90;;;;;;5017728;28;20221;-84
2021/11/22 11:44:31;;;;;;;10.63;6.53;;;9.20;99.90;;;;;;5023202;28;20573;-86
2021/11/22 11:47:24;;;;;;;7.13;6.40;;;9.20;99.90;;;;;;5018178;28;20428;-86
2021/11/22 11:49:51;;;;;;;6.88;6.22;;;9.20;99.90;;;;;;5020255;28;20286;-85
2021/11/22 11:52:23;;;;;;;18.80;6.65;;;9.20;99.90;;;;;;5013495;28;20206;-86
2021/11/22 11:54:52;;;;;;;7.97;7.22;;;9.20;99.90;;;;;;5017625;28;20211;-86
2021/11/22 11:57:21;;;;;;;6.88;6.25;;;9.20;99.90;;;;;;5034079;28;20208;-85
2021/11/22 11:59:48;;;;;;;6.55;6.05;;;9.20;99.90;;;;;;5017824;28;20232;-86
2021/11/22 12:02:25;;;;;;;8.02;7.32;;;9.20;99.90;;;;;;5019804;28;20239;-87
2021/11/22 12:04:59;;;;;;;5.72;5.22;;;9.10;99.90;;;;;;5020717;28;20395;-85
2021/11/22 12:07:38;;;;;;;7.22;6.53;;;9.00;99.90;;;;;;5020932;28;20210;-86
2021/11/22 12:10:19;;;;;;;7.28;6.47;;;9.00;99.90;;;;;;5018932;28;20203;-88
2021/11/22 12:12:51;;;;;;;6.72;5.95;;;9.00;99.90;;;;;;5014297;28;20310;-86
2021/11/22 12:15:24;;;;;;;7.85;5.80;;;9.10;99.90;;;;;;5022557;28;20488;-86
2021/11/22 12:17:56;;;;;;;7.07;6.35;;;9.00;99.90;;;;;;5020396;28;20250;-87
2021/11/22 12:20:47;;;;;;;7.25;6.60;;;8.90;99.90;;;;;;5019618;28;20290;-85
2021/11/22 12:23:16;;;;;;;6.45;5.95;;;8.90;99.90;;;;;;5025209;28;20522;-85
2021/11/22 12:25:49;;;;;;;8.38;7.43;;;9.00;99.90;;;;;;5026067;28;20216;-86
2021/11/22 12:28:42;;;;;;;8.23;7.43;;;9.00;99.90;;;;;;5029099;28;20216;-85
2021/11/22 12:31:11;;;;;;;7.70;7.00;;;9.00;99.90;;;;;;5023929;28;20201;-85
2021/11/22 12:33:40;;;;;;;6.40;5.90;;;9.00;99.90;;;;;;5024204;28;20207;-85
2021/11/22 12:36:28;;;;;;;6.32;5.72;;;8.90;99.90;;;;;;5021010;28;20217;-86
2021/11/22 12:39:01;;;;;;;10.32;7.15;;;8.90;99.90;;;;;;5023961;28;20305;-85
2021/11/22 12:41:31;;;;;;;6.38;5.88;;;8.80;99.90;;;;;;5023129;28;20707;-86
2021/11/22 12:44:00;;;;;;;5.72;5.18;;;8.80;99.90;;;;;;5018487;28;20656;-86
2021/11/22 12:46:41;;;;;;;15.88;6.97;;;8.80;99.90;;;;;;5027253;28;20204;-86
2021/11/22 12:49:30;;;;;;;7.10;6.15;;;8.80;99.90;;;;;;5018802;28;20194;-85
2021/11/22 12:52:11;;;;;;;6.13;5.63;;;8.80;99.90;;;;;;5011282;28;20206;-86
2021/11/22 12:54:52;;;;;;;5.40;5.00;;;8.80;99.90;;;;;;5015087;28;20203;-85